Time;durP1;ratioP1;P1;durP2;ratioP2;P2;SDS_P1;SDS_P2;PMS_P1;PMS_P2;Temp;Humidity;BMP_temperature;BMP_pressure;BME280_temperature;BME280_humidity;BME280_pressure;Samples;Min_cycle;Max_cycle;Signal;HPM_P1;HPM_P2
2021/10/23 00:01:23;;;;;;;6.28;6.07;;;;;;;;;;5069949;28;20055;-51
2021/10/23 00:03:50;;;;;;;4.88;4.55;;;;;;;;;;5069738;28;20516;-52
2021/10/23 00:06:17;;;;;;;6.63;6.07;;;;;;;;;;5069439;28;20090;-54
2021/10/23 00:08:44;;;;;;;32.35;6.60;;;;;;;;;;5070497;28;20029;-53
2021/10/23 00:11:11;;;;;;;26.77;6.00;;;;;;;;;;5070609;28;20056;-53
2021/10/23 00:13:38;;;;;;;6.30;5.88;;;;;;;;;;5067492;28;20102;-52
2021/10/23 00:16:05;;;;;;;26.30;5.90;;;;;;;;;;5069595;28;20040;-53
2021/10/23 00:18:32;;;;;;;38.97;7.82;;;;;;;;;;5067197;28;20056;-54
2021/10/23 00:20:59;;;;;;;41.22;7.05;;;;;;;;;;5069081;28;20044;-52
2021/10/23 00:23:26;;;;;;;281.77;15.07;;;;;;;;;;5059832;28;20078;-53
2021/10/23 00:25:53;;;;;;;206.23;14.48;;;;;;;;;;5070520;28;20045;-52
2021/10/23 00:28:20;;;;;;;359.33;21.98;;;;;;;;;;5070703;28;20075;-54
2021/10/23 00:30:46;;;;;;;69.88;8.93;;;;;;;;;;5069284;28;20103;-53
2021/10/23 00:33:13;;;;;;;243.75;15.20;;;;;;;;;;5068877;28;20044;-52
2021/10/23 00:35:40;;;;;;;88.28;9.30;;;;;;;;;;5061673;28;20044;-51
2021/10/23 00:38:06;;;;;;;136.50;10.63;;;;;;;;;;5062762;28;20036;-53
2021/10/23 00:40:33;;;;;;;8.95;7.13;;;;;;;;;;5069750;28;20047;-53
2021/10/23 00:43:00;;;;;;;76.55;7.57;;;;;;;;;;5068883;28;20039;-54
2021/10/23 00:45:27;;;;;;;20.45;5.75;;;;;;;;;;5065129;28;20053;-53
2021/10/23 00:47:54;;;;;;;16.88;4.30;;;;;;;;;;5066743;28;20094;-54
2021/10/23 00:50:21;;;;;;;30.88;4.88;;;;;;;;;;5061095;28;20050;-54
2021/10/23 00:52:49;;;;;;;37.00;4.47;;;;;;;;;;5068919;28;20810;-54
2021/10/23 00:55:16;;;;;;;9.63;5.15;;;;;;;;;;5067763;28;20045;-53
2021/10/23 00:57:42;;;;;;;4.55;4.35;;;;;;;;;;5066584;28;20037;-53
2021/10/23 01:00:09;;;;;;;81.20;6.07;;;;;;;;;;5070763;28;20043;-53
2021/10/23 01:02:36;;;;;;;11.65;3.65;;;;;;;;;;5066294;28;20065;-54
2021/10/23 01:05:04;;;;;;;4.78;4.38;;;;;;;;;;5068308;28;20122;-54
2021/10/23 01:07:31;;;;;;;4.82;3.00;;;;;;;;;;5068036;28;20476;-54
2021/10/23 01:09:59;;;;;;;5.47;4.65;;;;;;;;;;5070185;28;20041;-54
2021/10/23 01:12:25;;;;;;;15.07;5.18;;;;;;;;;;5069184;28;20046;-52
2021/10/23 01:14:52;;;;;;;7.25;4.20;;;;;;;;;;5068159;28;20046;-54
2021/10/23 01:17:20;;;;;;;142.35;9.63;;;;;;;;;;5058929;28;20501;-53
2021/10/23 01:19:49;;;;;;;83.10;7.75;;;;;;;;;;5060766;28;20047;-52
2021/10/23 01:22:15;;;;;;;90.22;7.40;;;;;;;;;;5068650;28;20485;-53
2021/10/23 01:24:42;;;;;;;93.20;8.00;;;;;;;;;;5065550;28;20060;-54
2021/10/23 01:27:09;;;;;;;121.88;10.55;;;;;;;;;;5068415;28;20512;-54
2021/10/23 01:29:36;;;;;;;162.52;11.80;;;;;;;;;;5068459;28;20044;-53
2021/10/23 01:32:02;;;;;;;83.47;7.43;;;;;;;;;;5067868;28;20123;-54
2021/10/23 01:34:29;;;;;;;13.00;5.13;;;;;;;;;;5060953;28;20363;-53
2021/10/23 01:36:58;;;;;;;5.32;4.65;;;;;;;;;;5065383;28;20136;-53
2021/10/23 01:39:26;;;;;;;11.88;4.97;;;;;;;;;;5064674;28;20112;-52
2021/10/23 01:41:54;;;;;;;68.10;6.47;;;;;;;;;;5062519;28;20570;-53
2021/10/23 01:44:25;;;;;;;91.63;6.82;;;;;;;;;;5056212;28;20135;-54
2021/10/23 01:46:52;;;;;;;9.82;5.18;;;;;;;;;;5069345;28;20600;-53
2021/10/23 01:49:19;;;;;;;25.95;4.47;;;;;;;;;;5068112;28;20033;-53
2021/10/23 01:51:45;;;;;;;10.40;4.25;;;;;;;;;;5068547;28;20424;-54
2021/10/23 01:54:12;;;;;;;176.48;9.80;;;;;;;;;;5068588;28;20036;-54
2021/10/23 01:56:40;;;;;;;25.63;3.97;;;;;;;;;;5065084;28;20032;-54
2021/10/23 01:59:07;;;;;;;105.00;7.85;;;;;;;;;;5068796;28;20111;-54
2021/10/23 02:01:34;;;;;;;117.63;8.50;;;;;;;;;;5064579;28;20042;-54
2021/10/23 02:04:01;;;;;;;19.40;4.60;;;;;;;;;;5066787;28;20102;-52
2021/10/23 02:06:28;;;;;;;59.60;4.90;;;;;;;;;;5067143;28;20029;-53
2021/10/23 02:08:55;;;;;;;150.15;9.75;;;;;;;;;;5061962;28;20051;-54
2021/10/23 02:11:22;;;;;;;101.65;7.88;;;;;;;;;;5070527;28;20136;-53
2021/10/23 02:13:48;;;;;;;274.38;14.98;;;;;;;;;;5066514;28;20064;-53
2021/10/23 02:16:15;;;;;;;238.13;12.75;;;;;;;;;;5066992;28;20047;-52
2021/10/23 02:18:42;;;;;;;239.02;11.70;;;;;;;;;;5064949;28;20103;-53
2021/10/23 02:21:11;;;;;;;284.25;15.40;;;;;;;;;;5061073;28;20095;-54
2021/10/23 02:23:38;;;;;;;211.80;13.45;;;;;;;;;;5069626;28;20519;-54
2021/10/23 02:26:05;;;;;;;140.90;9.52;;;;;;;;;;5067621;28;20044;-54
2021/10/23 02:28:32;;;;;;;201.05;12.77;;;;;;;;;;5069230;28;20052;-54
2021/10/23 02:31:02;;;;;;;129.30;8.43;;;;;;;;;;5065644;28;20443;-53
2021/10/23 02:33:29;;;;;;;15.07;5.28;;;;;;;;;;5067830;28;20056;-54
2021/10/23 02:35:56;;;;;;;96.85;7.15;;;;;;;;;;5069256;28;20044;-53
2021/10/23 02:38:23;;;;;;;148.25;9.52;;;;;;;;;;5056847;28;20032;-54
2021/10/23 02:40:50;;;;;;;56.58;4.75;;;;;;;;;;5067487;28;20068;-53
2021/10/23 02:43:17;;;;;;;3.72;3.53;;;;;;;;;;5065308;28;20037;-53
2021/10/23 02:45:43;;;;;;;133.90;8.80;;;;;;;;;;5068789;28;20079;-54
2021/10/23 02:48:10;;;;;;;222.88;10.23;;;;;;;;;;5067966;28;20093;-53
2021/10/23 02:50:37;;;;;;;220.35;11.38;;;;;;;;;;5068525;28;20052;-53
2021/10/23 02:53:04;;;;;;;109.10;6.82;;;;;;;;;;5069319;28;20066;-54
2021/10/23 02:55:30;;;;;;;96.40;7.28;;;;;;;;;;5064543;28;20045;-54
2021/10/23 02:57:57;;;;;;;150.27;8.70;;;;;;;;;;5068879;28;20354;-53
2021/10/23 03:00:24;;;;;;;80.13;6.47;;;;;;;;;;5064200;28;20124;-54
2021/10/23 03:02:51;;;;;;;100.22;8.18;;;;;;;;;;5061416;28;20052;-54
2021/10/23 03:05:18;;;;;;;207.88;13.07;;;;;;;;;;5067810;28;20031;-54
2021/10/23 03:07:45;;;;;;;116.32;7.85;;;;;;;;;;5068061;28;20036;-53
2021/10/23 03:10:12;;;;;;;224.75;13.85;;;;;;;;;;5069465;28;20036;-54
2021/10/23 03:12:39;;;;;;;118.38;9.02;;;;;;;;;;5067113;28;20051;-53
2021/10/23 03:15:06;;;;;;;66.78;7.07;;;;;;;;;;5063909;28;20049;-52
2021/10/23 03:17:33;;;;;;;147.02;9.93;;;;;;;;;;5069178;28;20044;-54
2021/10/23 03:20:01;;;;;;;98.68;7.68;;;;;;;;;;5066734;28;20032;-54
2021/10/23 03:22:28;;;;;;;12.43;3.53;;;;;;;;;;5071703;28;20041;-53
2021/10/23 03:24:55;;;;;;;122.75;8.23;;;;;;;;;;5070577;28;20032;-53
2021/10/23 03:27:23;;;;;;;14.13;3.80;;;;;;;;;;5069322;28;20105;-54
2021/10/23 03:29:50;;;;;;;127.70;7.65;;;;;;;;;;5072286;28;20040;-53
2021/10/23 03:32:17;;;;;;;60.47;4.28;;;;;;;;;;5070541;28;20032;-53
2021/10/23 03:34:44;;;;;;;154.07;9.07;;;;;;;;;;5070994;28;20362;-54
2021/10/23 03:37:11;;;;;;;94.68;6.43;;;;;;;;;;5069565;28;20027;-54
2021/10/23 03:39:38;;;;;;;73.97;3.95;;;;;;;;;;5071338;28;20081;-53
2021/10/23 03:42:05;;;;;;;122.53;7.38;;;;;;;;;;5067601;28;20040;-54
2021/10/23 03:44:32;;;;;;;78.35;5.35;;;;;;;;;;5063115;28;20065;-54
2021/10/23 03:46:59;;;;;;;91.90;6.82;;;;;;;;;;5064141;28;20132;-53
2021/10/23 03:49:25;;;;;;;89.10;6.10;;;;;;;;;;5067813;28;20072;-53
2021/10/23 03:51:52;;;;;;;166.40;11.30;;;;;;;;;;5069805;28;20462;-54
2021/10/23 03:54:19;;;;;;;83.85;7.57;;;;;;;;;;5068644;28;20037;-54
2021/10/23 03:56:45;;;;;;;114.72;8.02;;;;;;;;;;5065309;28;20044;-54
2021/10/23 03:59:12;;;;;;;67.00;6.30;;;;;;;;;;5070234;28;20395;-54
2021/10/23 04:01:39;;;;;;;85.38;9.93;;;;;;;;;;5057728;28;20032;-54
2021/10/23 04:04:08;;;;;;;26.85;7.15;;;;;;;;;;5064116;28;20128;-54
2021/10/23 04:06:35;;;;;;;60.33;6.35;;;;;;;;;;5061563;28;20143;-54
2021/10/23 04:09:01;;;;;;;29.42;5.53;;;;;;;;;;5069552;28;20047;-54
2021/10/23 04:11:28;;;;;;;6.25;4.32;;;;;;;;;;5070855;28;20047;-55
2021/10/23 04:13:55;;;;;;;11.30;2.90;;;;;;;;;;5069849;28;20129;-54
2021/10/23 04:16:22;;;;;;;9.68;2.85;;;;;;;;;;5070366;28;20048;-54
2021/10/23 04:18:49;;;;;;;7.25;3.15;;;;;;;;;;5068764;28;20052;-54
2021/10/23 04:21:16;;;;;;;19.83;3.13;;;;;;;;;;5064214;28;20032;-54
2021/10/23 04:23:42;;;;;;;68.10;5.65;;;;;;;;;;5069650;28;20115;-54
2021/10/23 04:26:09;;;;;;;56.47;4.65;;;;;;;;;;5069081;28;20120;-54
2021/10/23 04:28:36;;;;;;;71.95;7.47;;;;;;;;;;5061093;28;20135;-54
2021/10/23 04:31:03;;;;;;;9.45;2.20;;;;;;;;;;5058777;28;20126;-54
2021/10/23 04:33:30;;;;;;;5.90;3.70;;;;;;;;;;5069854;28;20041;-53
2021/10/23 04:35:57;;;;;;;12.18;3.58;;;;;;;;;;5068811;28;20455;-55
2021/10/23 04:38:24;;;;;;;68.88;5.18;;;;;;;;;;5069173;28;20067;-54
2021/10/23 04:40:51;;;;;;;35.25;4.68;;;;;;;;;;5065582;28;20113;-54
2021/10/23 04:43:18;;;;;;;10.80;2.15;;;;;;;;;;5057070;28;20025;-54
2021/10/23 04:45:45;;;;;;;3.10;2.85;;;;;;;;;;5069631;28;20086;-53
2021/10/23 04:48:11;;;;;;;124.30;7.65;;;;;;;;;;5068691;28;20124;-54
2021/10/23 04:50:38;;;;;;;58.58;6.47;;;;;;;;;;5066338;28;20041;-54
2021/10/23 04:53:05;;;;;;;52.08;6.93;;;;;;;;;;5068261;28;20037;-54
2021/10/23 04:55:32;;;;;;;268.27;14.70;;;;;;;;;;5068862;28;20037;-54
2021/10/23 04:57:58;;;;;;;162.43;11.07;;;;;;;;;;5068325;28;20051;-54
2021/10/23 05:00:25;;;;;;;114.43;9.00;;;;;;;;;;5067228;28;20112;-55
2021/10/23 05:02:52;;;;;;;16.45;5.95;;;;;;;;;;5069189;28;20037;-53
2021/10/23 05:05:20;;;;;;;85.95;6.68;;;;;;;;;;5066353;28;20028;-55
2021/10/23 05:07:47;;;;;;;7.85;5.55;;;;;;;;;;5058996;28;20040;-54
2021/10/23 05:10:14;;;;;;;249.13;10.85;;;;;;;;;;5068871;28;20048;-54
2021/10/23 05:12:41;;;;;;;99.28;8.07;;;;;;;;;;5066068;28;20037;-53
2021/10/23 05:15:08;;;;;;;145.57;8.43;;;;;;;;;;5069851;28;20048;-52
2021/10/23 05:17:34;;;;;;;187.40;11.52;;;;;;;;;;5066977;28;20039;-54
2021/10/23 05:20:02;;;;;;;36.38;9.18;;;;;;;;;;5061210;28;20040;-54
2021/10/23 05:22:29;;;;;;;5.07;4.85;;;;;;;;;;5065964;28;20508;-54
2021/10/23 05:24:56;;;;;;;195.02;15.05;;;;;;;;;;5055913;28;20127;-54
2021/10/23 05:27:22;;;;;;;103.93;13.10;;;;;;;;;;5066916;28;20055;-54
2021/10/23 05:29:49;;;;;;;200.57;12.13;;;;;;;;;;5068434;28;20032;-54
2021/10/23 05:32:16;;;;;;;139.27;12.45;;;;;;;;;;5066666;28;20516;-55
2021/10/23 05:34:43;;;;;;;104.32;10.05;;;;;;;;;;5066582;28;20136;-54
2021/10/23 05:37:09;;;;;;;180.13;16.02;;;;;;;;;;5063714;28;20039;-54
2021/10/23 05:39:36;;;;;;;160.55;8.18;;;;;;;;;;5065755;28;20086;-55
2021/10/23 05:42:03;;;;;;;200.40;14.20;;;;;;;;;;5067873;28;20041;-55
2021/10/23 05:44:29;;;;;;;100.35;11.00;;;;;;;;;;5067587;28;20047;-54
2021/10/23 05:46:56;;;;;;;113.75;12.52;;;;;;;;;;5067314;28;20179;-55
2021/10/23 05:49:23;;;;;;;133.75;14.50;;;;;;;;;;5058672;28;20044;-54
2021/10/23 05:51:51;;;;;;;47.78;11.23;;;;;;;;;;5066804;28;20032;-54
2021/10/23 05:54:18;;;;;;;95.50;13.18;;;;;;;;;;5067141;28;20045;-55
2021/10/23 05:56:45;;;;;;;112.97;14.30;;;;;;;;;;5067978;28;20040;-53
2021/10/23 05:59:12;;;;;;;110.72;13.27;;;;;;;;;;5067711;28;20048;-53
2021/10/23 06:01:40;;;;;;;152.25;16.98;;;;;;;;;;5067774;28;20048;-55
2021/10/23 06:04:07;;;;;;;203.82;19.23;;;;;;;;;;5067680;28;20028;-54
2021/10/23 06:06:34;;;;;;;177.85;19.67;;;;;;;;;;5067661;28;20037;-55
2021/10/23 06:09:01;;;;;;;50.92;12.70;;;;;;;;;;5067450;28;20426;-54
2021/10/23 06:11:28;;;;;;;160.70;13.13;;;;;;;;;;5063791;28;20083;-55
2021/10/23 06:13:58;;;;;;;224.68;20.08;;;;;;;;;;5067742;28;20504;-53
2021/10/23 06:16:26;;;;;;;182.20;20.35;;;;;;;;;;5063704;28;20037;-55
2021/10/23 06:18:52;;;;;;;17.98;14.05;;;;;;;;;;5059226;28;20037;-54
2021/10/23 06:21:19;;;;;;;169.35;20.98;;;;;;;;;;5068278;28;20037;-42
2021/10/23 06:23:46;;;;;;;159.73;19.60;;;;;;;;;;5057136;28;20048;-44
2021/10/23 06:26:13;;;;;;;70.63;15.25;;;;;;;;;;5066294;28;20037;-42
2021/10/23 06:28:39;;;;;;;75.15;16.52;;;;;;;;;;5063621;28;20032;-42
2021/10/23 06:31:07;;;;;;;188.40;19.48;;;;;;;;;;5064963;28;20119;-42
2021/10/23 06:33:35;;;;;;;188.10;20.65;;;;;;;;;;5062183;28;20396;-43
2021/10/23 06:36:02;;;;;;;211.20;21.95;;;;;;;;;;5065510;28;20044;-42
2021/10/23 06:38:29;;;;;;;76.55;15.80;;;;;;;;;;5064390;28;20086;-43
2021/10/23 06:40:57;;;;;;;119.28;20.20;;;;;;;;;;5067321;28;20117;-44
2021/10/23 06:43:25;;;;;;;85.82;17.15;;;;;;;;;;5056847;28;20052;-45
2021/10/23 06:45:52;;;;;;;111.78;16.77;;;;;;;;;;5064402;28;20035;-42
2021/10/23 06:48:19;;;;;;;64.57;17.58;;;;;;;;;;5066059;28;20102;-44
2021/10/23 06:50:46;;;;;;;14.23;13.50;;;;;;;;;;5070772;28;20044;-44
2021/10/23 06:53:13;;;;;;;24.83;15.40;;;;;;;;;;5066819;28;20044;-45
2021/10/23 06:55:40;;;;;;;16.35;15.20;;;;;;;;;;5063911;28;20040;-45
2021/10/23 06:58:07;;;;;;;63.13;16.60;;;;;;;;;;5070756;28;20089;-44
2021/10/23 07:00:34;;;;;;;84.60;17.33;;;;;;;;;;5070893;28;20083;-41
2021/10/23 07:03:01;;;;;;;13.15;12.73;;;;;;;;;;5070568;28;20032;-46
2021/10/23 07:05:30;;;;;;;13.52;13.18;;;;;;;;;;5069828;28;20031;-44
2021/10/23 07:07:57;;;;;;;9.75;9.40;;;;;;;;;;5072594;28;20432;-42
2021/10/23 07:10:24;;;;;;;10.70;10.25;;;;;;;;;;5070993;28;20127;-43
2021/10/23 07:12:51;;;;;;;11.15;11.00;;;;;;;;;;5063710;28;20131;-43
2021/10/23 07:15:18;;;;;;;11.75;11.27;;;;;;;;;;5069069;28;20093;-44
2021/10/23 07:17:45;;;;;;;12.68;12.38;;;;;;;;;;5071357;28;20032;-43
2021/10/23 07:20:12;;;;;;;8.38;8.27;;;;;;;;;;5057593;28;20359;-42
2021/10/23 07:22:39;;;;;;;6.07;5.97;;;;;;;;;;5065196;28;20044;-42
2021/10/23 07:25:06;;;;;;;6.70;6.45;;;;;;;;;;5071478;28;20068;-42
2021/10/23 07:27:34;;;;;;;6.30;6.18;;;;;;;;;;5068787;28;20580;-42
2021/10/23 07:30:02;;;;;;;6.88;6.40;;;;;;;;;;5070216;28;20559;-43
2021/10/23 07:32:29;;;;;;;6.00;5.90;;;;;;;;;;5070879;28;20052;-41
2021/10/23 07:34:56;;;;;;;7.38;7.28;;;;;;;;;;5065843;28;20508;-42
2021/10/23 07:37:23;;;;;;;5.85;5.70;;;;;;;;;;5062188;28;20052;-46
2021/10/23 07:39:49;;;;;;;7.15;7.03;;;;;;;;;;5067329;28;20048;-42
2021/10/23 07:42:16;;;;;;;2.60;2.53;;;;;;;;;;5066971;28;20103;-42
2021/10/23 07:44:43;;;;;;;9.02;8.77;;;;;;;;;;5070619;28;20089;-42
2021/10/23 07:47:11;;;;;;;8.85;8.75;;;;;;;;;;5069878;28;20067;-44
2021/10/23 07:49:39;;;;;;;9.18;9.07;;;;;;;;;;5061659;28;20392;-42
2021/10/23 07:52:06;;;;;;;7.35;7.25;;;;;;;;;;5066821;28;20043;-42
2021/10/23 07:54:32;;;;;;;8.43;8.32;;;;;;;;;;5054065;28;20051;-43
2021/10/23 07:56:59;;;;;;;3.40;3.30;;;;;;;;;;5069275;28;20051;-43
2021/10/23 07:59:26;;;;;;;10.98;10.88;;;;;;;;;;5068714;28;20500;-43
2021/10/23 08:01:56;;;;;;;8.48;8.27;;;;;;;;;;5063334;28;20505;-41
2021/10/23 08:04:23;;;;;;;10.30;9.88;;;;;;;;;;5068015;28;20415;-43
2021/10/23 08:06:50;;;;;;;8.32;8.13;;;;;;;;;;5053978;28;20497;-42
2021/10/23 08:09:17;;;;;;;13.57;13.38;;;;;;;;;;5069312;28;20120;-41
2021/10/23 08:11:44;;;;;;;11.63;11.43;;;;;;;;;;5068596;28;20396;-42
2021/10/23 08:14:12;;;;;;;6.95;6.57;;;;;;;;;;5068405;28;20583;-43
2021/10/23 08:16:39;;;;;;;11.85;11.32;;;;;;;;;;5067713;28;20060;-42
2021/10/23 08:19:06;;;;;;;12.02;11.70;;;;;;;;;;5065722;28;20047;-45
2021/10/23 08:21:32;;;;;;;11.18;11.00;;;;;;;;;;5062682;28;20485;-46
2021/10/23 08:23:59;;;;;;;11.00;10.70;;;;;;;;;;5068321;28;20547;-42
2021/10/23 08:26:26;;;;;;;10.73;10.52;;;;;;;;;;5066538;28;20404;-42
2021/10/23 08:28:54;;;;;;;11.52;11.13;;;;;;;;;;5067241;28;20042;-44
2021/10/23 08:31:20;;;;;;;11.07;10.52;;;;;;;;;;5063554;28;20132;-43
2021/10/23 08:33:47;;;;;;;12.60;12.05;;;;;;;;;;5063650;28;20036;-41
2021/10/23 08:36:15;;;;;;;12.48;12.15;;;;;;;;;;5051887;28;20072;-42
2021/10/23 08:38:42;;;;;;;8.90;8.70;;;;;;;;;;5068457;28;20040;-45
2021/10/23 08:41:12;;;;;;;9.65;9.40;;;;;;;;;;5068455;28;20151;-42
2021/10/23 08:43:42;;;;;;;7.85;7.75;;;;;;;;;;5063053;28;20110;-43
2021/10/23 08:46:22;;;;;;;7.72;7.63;;;;;;;;;;5062585;28;20472;-42
2021/10/23 08:48:50;;;;;;;7.72;7.53;;;;;;;;;;5055784;28;20083;-41
2021/10/23 08:51:17;;;;;;;6.70;6.47;;;;;;;;;;5059646;28;20128;-42
2021/10/23 08:53:44;;;;;;;5.38;5.28;;;;;;;;;;5055691;28;20040;-47
2021/10/23 08:56:11;;;;;;;4.55;4.45;;;;;;;;;;5065035;28;20428;-41
2021/10/23 08:58:38;;;;;;;5.57;5.10;;;;;;;;;;5062603;28;20037;-41
2021/10/23 09:01:06;;;;;;;3.58;3.30;;;;;;;;;;5056875;28;20087;-41
2021/10/23 09:03:33;;;;;;;3.00;2.90;;;;;;;;;;5065928;28;20052;-41
2021/10/23 09:06:00;;;;;;;3.83;3.60;;;;;;;;;;5052523;28;20425;-43
2021/10/23 09:08:27;;;;;;;3.85;3.70;;;;;;;;;;5061803;28;20119;-42
2021/10/23 09:11:06;;;;;;;3.75;3.60;;;;;;;;;;5065337;28;20037;-41
2021/10/23 09:13:34;;;;;;;20.67;13.13;;;;;;;;;;5065048;28;20044;-41
2021/10/23 09:16:16;;;;;;;10.98;10.00;;;;;;;;;;5065154;28;20044;-42
2021/10/23 09:18:46;;;;;;;9.90;9.10;;;;;;;;;;5052393;28;20041;-45
2021/10/23 09:21:16;;;;;;;4.57;4.28;;;;;;;;;;5065663;28;20044;-45
2021/10/23 09:23:43;;;;;;;9.55;8.98;;;;;;;;;;5066924;28;20025;-42
2021/10/23 09:26:27;;;;;;;6.78;6.35;;;;;;;;;;5055878;28;20065;-43
2021/10/23 09:29:11;;;;;;;7.53;7.32;;;;;;;;;;5063416;28;20032;-42
2021/10/23 09:31:39;;;;;;;5.47;5.15;;;;;;;;;;5069013;28;20491;-44
2021/10/23 09:34:08;;;;;;;4.60;4.45;;;;;;;;;;5067328;28;20103;-44
2021/10/23 09:36:40;;;;;;;5.40;5.22;;;;;;;;;;5065254;28;20048;-43
2021/10/23 09:39:08;;;;;;;2.92;2.83;;;;;;;;;;5064744;28;20054;-43
2021/10/23 09:41:35;;;;;;;4.80;4.50;;;;;;;;;;5061008;28;20074;-44
2021/10/23 09:44:14;;;;;;;3.13;3.03;;;;;;;;;;5066246;28;20039;-43
2021/10/23 09:46:55;;;;;;;5.13;4.85;;;;;;;;;;5067434;28;20091;-43
2021/10/23 09:49:25;;;;;;;4.20;3.92;;;;;;;;;;5066465;28;20138;-44
2021/10/23 09:52:02;;;;;;;7.13;4.25;;;;;;;;;;5069369;28;20047;-42
2021/10/23 09:54:29;;;;;;;5.22;3.83;;;;;;;;;;5065766;28;20047;-43
2021/10/23 09:56:56;;;;;;;2.78;2.50;;;;;;;;;;5067184;28;20432;-43
2021/10/23 09:59:26;;;;;;;3.10;2.83;;;;;;;;;;5066929;28;20094;-44
2021/10/23 10:01:56;;;;;;;2.72;2.53;;;;;;;;;;5062528;28;20040;-43
2021/10/23 10:04:24;;;;;;;3.35;3.13;;;;;;;;;;5063717;28;20044;-44
2021/10/23 10:06:51;;;;;;;2.33;2.17;;;;;;;;;;5067320;28;20098;-44
2021/10/23 10:09:21;;;;;;;3.03;2.83;;;;;;;;;;5067658;28;20512;-42
2021/10/23 10:11:50;;;;;;;3.00;2.75;;;;;;;;;;5067341;28;20043;-43
2021/10/23 10:14:17;;;;;;;1.63;1.45;;;;;;;;;;5059477;28;20049;-43
2021/10/23 10:16:58;;;;;;;1.95;1.85;;;;;;;;;;5066388;28;20043;-42
2021/10/23 10:19:26;;;;;;;2.42;2.33;;;;;;;;;;5065954;28;20094;-42
2021/10/23 10:21:53;;;;;;;1.60;1.60;;;;;;;;;;5068645;28;20439;-44
2021/10/23 10:24:26;;;;;;;5.80;2.33;;;;;;;;;;5065120;28;20072;-43
2021/10/23 10:27:03;;;;;;;3.72;3.53;;;;;;;;;;5063388;28;20527;-42
2021/10/23 10:29:39;;;;;;;4.32;1.90;;;;;;;;;;5067299;28;20048;-43
2021/10/23 10:42:53;;;;;;;2.83;2.50;;;;;;;;;;5070146;28;20055;-42
2021/10/23 10:45:29;;;;;;;1.70;1.65;;;;;;;;;;5065958;28;20051;-42
2021/10/23 10:48:15;;;;;;;3.10;2.60;;;;;;;;;;5070931;28;20075;-42
2021/10/23 10:50:43;;;;;;;1.80;1.55;;;;;;;;;;5066901;28;20056;-45
2021/10/23 10:53:26;;;;;;;1.33;1.33;;;;;;;;;;5069290;28;20102;-42
2021/10/23 10:56:05;;;;;;;3.60;1.77;;;;;;;;;;5060515;28;20040;-43
2021/10/23 10:58:48;;;;;;;1.33;1.33;;;;;;;;;;5072184;28;20037;-43
2021/10/23 11:01:22;;;;;;;1.10;1.10;;;;;;;;;;5061188;28;20090;-41
2021/10/23 11:03:54;;;;;;;2.15;1.35;;;;;;;;;;5071479;28;20113;-43
2021/10/23 11:06:39;;;;;;;0.90;0.90;;;;;;;;;;5069436;28;20044;-43
2021/10/23 11:09:12;;;;;;;0.80;0.80;;;;;;;;;;5059368;28;20052;-41
2021/10/23 11:11:44;;;;;;;1.35;0.90;;;;;;;;;;5070246;28;20044;-45
2021/10/23 11:14:13;;;;;;;;;;;;;;;;;;5072894;28;20146;-44
2021/10/23 11:16:40;;;;;;;2.35;0.80;;;;;;;;;;5064909;28;19921;-42
2021/10/23 11:19:08;;;;;;;3.60;0.80;;;;;;;;;;5068440;28;20048;-42
2021/10/23 11:21:37;;;;;;;1.33;0.70;;;;;;;;;;5067981;28;20790;-44
2021/10/23 11:24:04;;;;;;;0.80;0.80;;;;;;;;;;5072609;28;20423;-42
2021/10/23 11:26:31;;;;;;;1.40;1.30;;;;;;;;;;5071065;28;20040;-44
2021/10/23 11:28:57;;;;;;;1.02;1.02;;;;;;;;;;5070699;28;20095;-42
2021/10/23 11:31:24;;;;;;;1.30;1.20;;;;;;;;;;5068360;28;20397;-46
2021/10/23 11:33:56;;;;;;;4.45;3.97;;;;;;;;;;5069878;28;20047;-43
2021/10/23 11:36:23;;;;;;;0.90;0.90;;;;;;;;;;5065144;28;20041;-43
2021/10/23 11:38:52;;;;;;;1.27;0.80;;;;;;;;;;5063951;28;20028;-44
2021/10/23 11:41:23;;;;;;;1.00;1.00;;;;;;;;;;5068953;28;20389;-43
2021/10/23 11:44:05;;;;;;;0.90;0.90;;;;;;;;;;5070264;28;20438;-42
2021/10/23 11:46:31;;;;;;;5.50;5.20;;;;;;;;;;5079982;28;20115;-43
2021/10/23 11:48:59;;;;;;;0.80;0.80;;;;;;;;;;5069128;28;20086;-42
2021/10/23 11:51:26;;;;;;;0.90;0.90;;;;;;;;;;5069722;28;20090;-44
2021/10/23 11:54:00;;;;;;;0.80;0.80;;;;;;;;;;5070755;28;20114;-43
2021/10/23 11:56:27;;;;;;;0.90;0.90;;;;;;;;;;5069072;28;20041;-43
2021/10/23 11:58:54;;;;;;;0.80;0.80;;;;;;;;;;5071258;28;20116;-41
2021/10/23 12:01:25;;;;;;;0.80;0.80;;;;;;;;;;5070530;28;20408;-43
2021/10/23 12:03:57;;;;;;;0.80;0.80;;;;;;;;;;5070732;28;20573;-42
2021/10/23 12:06:25;;;;;;;0.77;0.77;;;;;;;;;;5068564;28;20036;-43
2021/10/23 12:08:52;;;;;;;3.05;0.80;;;;;;;;;;5065654;28;20303;-42
2021/10/23 12:11:26;;;;;;;0.70;0.70;;;;;;;;;;5055660;28;20043;-42
2021/10/23 12:13:54;;;;;;;0.70;0.70;;;;;;;;;;5069336;28;20060;-42
2021/10/23 12:16:31;;;;;;;2.00;0.70;;;;;;;;;;5059273;28;20115;-44
2021/10/23 12:19:12;;;;;;;0.70;0.70;;;;;;;;;;5062644;28;20036;-42
2021/10/23 12:21:46;;;;;;;0.80;0.80;;;;;;;;;;5066606;28;20094;-43
2021/10/23 12:24:15;;;;;;;0.80;0.80;;;;;;;;;;5068540;28;20048;-43
2021/10/23 12:26:42;;;;;;;0.70;0.70;;;;;;;;;;5069539;28;20029;-43
2021/10/23 12:29:11;;;;;;;0.80;0.80;;;;;;;;;;5068982;28;20086;-50
2021/10/23 12:31:57;;;;;;;0.80;0.80;;;;;;;;;;5071816;28;20052;-51
2021/10/23 12:34:25;;;;;;;0.80;0.80;;;;;;;;;;5068194;28;20040;-49
2021/10/23 12:36:56;;;;;;;1.08;1.08;;;;;;;;;;5069133;28;20050;-52
2021/10/23 12:39:29;;;;;;;0.80;0.80;;;;;;;;;;5069909;28;20139;-51
2021/10/23 12:41:56;;;;;;;0.80;0.80;;;;;;;;;;5067517;28;20082;-47
2021/10/23 12:44:24;;;;;;;18.58;16.55;;;;;;;;;;5054994;28;20037;-46
2021/10/23 12:46:51;;;;;;;1.13;1.02;;;;;;;;;;5068856;28;20591;-48
2021/10/23 12:49:19;;;;;;;1.00;1.00;;;;;;;;;;5067904;28;20044;-49
2021/10/23 12:51:45;;;;;;;1.42;1.33;;;;;;;;;;5069915;28;20592;-46
2021/10/23 12:54:18;;;;;;;0.98;0.98;;;;;;;;;;5067935;28;20070;-49
2021/10/23 12:56:45;;;;;;;1.20;1.20;;;;;;;;;;5060319;28;20102;-47
2021/10/23 12:59:12;;;;;;;2.03;1.23;;;;;;;;;;5067470;28;20136;-50
2021/10/23 13:01:39;;;;;;;0.90;0.90;;;;;;;;;;5065569;28;20021;-49
2021/10/23 13:04:07;;;;;;;0.90;0.90;;;;;;;;;;5069899;28;20054;-49
2021/10/23 13:06:33;;;;;;;1.08;0.90;;;;;;;;;;5068128;28;20048;-51
2021/10/23 13:09:01;;;;;;;0.98;0.90;;;;;;;;;;5061882;28;20389;-46
2021/10/23 13:11:27;;;;;;;1.10;1.10;;;;;;;;;;5065741;28;20154;-48
2021/10/23 13:13:54;;;;;;;2.05;0.93;;;;;;;;;;5053200;28;20119;-49
2021/10/23 13:16:21;;;;;;;1.00;1.00;;;;;;;;;;5067816;28;20123;-49
2021/10/23 13:18:48;;;;;;;1.00;1.00;;;;;;;;;;5068259;28;20039;-49
2021/10/23 13:21:15;;;;;;;1.10;1.00;;;;;;;;;;5068644;28;20037;-49
2021/10/23 13:23:42;;;;;;;1.95;0.90;;;;;;;;;;5068925;28;20047;-49
2021/10/23 13:26:08;;;;;;;0.90;0.90;;;;;;;;;;5070023;28;20052;-50
2021/10/23 13:28:35;;;;;;;1.00;1.00;;;;;;;;;;5066751;28;20419;-49
2021/10/23 13:31:03;;;;;;;1.80;1.00;;;;;;;;;;5068169;28;20040;-50
2021/10/23 13:33:30;;;;;;;1.50;1.40;;;;;;;;;;5065657;28;20041;-48
2021/10/23 13:36:01;;;;;;;1.67;0.90;;;;;;;;;;5061771;28;20466;-49
2021/10/23 13:38:28;;;;;;;1.45;0.90;;;;;;;;;;5062403;28;20552;-50
2021/10/23 13:40:55;;;;;;;0.80;0.80;;;;;;;;;;5068166;28;20123;-50
2021/10/23 13:43:22;;;;;;;1.77;1.00;;;;;;;;;;5066399;28;20040;-47
2021/10/23 13:45:49;;;;;;;1.58;1.48;;;;;;;;;;5064000;28;20122;-50
2021/10/23 13:48:15;;;;;;;1.00;1.00;;;;;;;;;;5059819;28;20609;-48
2021/10/23 13:50:42;;;;;;;1.25;1.17;;;;;;;;;;5066442;28;20041;-48
2021/10/23 13:53:09;;;;;;;1.08;0.98;;;;;;;;;;5067340;28;20085;-50
2021/10/23 13:55:37;;;;;;;0.98;0.98;;;;;;;;;;5061442;28;20032;-47
2021/10/23 13:58:05;;;;;;;2.05;0.90;;;;;;;;;;5062581;28;20049;-46
2021/10/23 14:00:32;;;;;;;1.15;1.00;;;;;;;;;;5058918;28;20029;-48
2021/10/23 14:02:59;;;;;;;1.67;1.10;;;;;;;;;;5064524;28;20107;-50
2021/10/23 14:05:26;;;;;;;1.15;1.00;;;;;;;;;;5066554;28;20052;-49
2021/10/23 14:07:54;;;;;;;1.23;1.10;;;;;;;;;;5064874;28;20035;-48
2021/10/23 14:10:22;;;;;;;1.95;1.10;;;;;;;;;;5061728;28;20051;-47
2021/10/23 14:12:48;;;;;;;1.15;1.15;;;;;;;;;;5062926;28;20049;-49
2021/10/23 14:15:15;;;;;;;1.10;1.10;;;;;;;;;;5062458;28;20071;-46
2021/10/23 14:17:42;;;;;;;1.00;1.00;;;;;;;;;;5063281;28;20037;-51
2021/10/23 14:20:09;;;;;;;1.10;1.10;;;;;;;;;;5059897;28;20033;-47
2021/10/23 14:22:37;;;;;;;1.20;1.20;;;;;;;;;;5065396;28;20036;-48
2021/10/23 14:25:04;;;;;;;1.10;1.10;;;;;;;;;;5066577;28;20029;-51
2021/10/23 14:27:42;;;;;;;1.25;1.25;;;;;;;;;;5066219;28;20047;-50
2021/10/23 14:30:12;;;;;;;1.13;1.13;;;;;;;;;;5064573;28;20040;-47
2021/10/23 14:32:39;;;;;;;1.20;1.20;;;;;;;;;;5060940;28;20056;-50
2021/10/23 14:35:11;;;;;;;1.20;1.20;;;;;;;;;;5060341;28;20051;-48
2021/10/23 14:37:38;;;;;;;1.10;1.10;;;;;;;;;;5066320;28;20054;-49
2021/10/23 14:40:06;;;;;;;1.30;1.30;;;;;;;;;;5062042;28;20508;-50
2021/10/23 14:42:33;;;;;;;1.65;1.13;;;;;;;;;;5057780;28;20029;-51
2021/10/23 14:44:59;;;;;;;1.40;1.30;;;;;;;;;;5065809;28;20040;-46
2021/10/23 14:47:26;;;;;;;1.58;1.58;;;;;;;;;;5065519;28;20691;-50